Hlavní strana
METAR-TAF:

METAR-TAF

Letiště :

Volgograd, Rusko

zeměpisná šířka: 48-47N, zeměpisná délka: 044-22E, výška: 145 m

Aktuální stav počasí

Zpráva byla vytvořena před 44 minutami, v 19:30 UTC
Bezvětří
Teplota -1°C
Vlhkost vzduchu 100%
Tlak 1030 hPa
Viditelnost: 0500 m
mrznoucí mlha

METAR: URWW 191930Z 00000MPS 0550 0500NE R06/1600D FZFG VV002 M01/M01 Q1030 R06/010070 NOSIG RMK QBB060 OBST OBSC

Čas: 00:14 (20:14 UTC)

Předpověď počasí

Zpráva byla vytvořena před 1 hodinou a 17 minutami, v 18:57 UTC
Předpověď platná od 19 v 19 UTC do 20 v 03 UTC
Východní vítr 6 kt s nárazy do 16 kt
Viditelnost: 0300 m
Zataženo ve výšce 200 ft
mrznoucí mlha
Dočasný
od 19 v 19 UTC do 20 v 03 UTC
Východoseverovýchodní vítr 6 kt s nárazy do 16 kt
Viditelnost: 1000 m
(slabý) mrznoucí, mrholení, kouřmo

TAF: URWW 191857Z 1919/2003 10003G08MPS 0300 FZFG OVC002 TEMPO 1919/2003 07003G08MPS 1000 -FZDZ BR

Stav a předpovědi počasí z více než 4 000 letišť (zprávy METAR a TAF).

Červené a žluté tečky na mapě představují dostupné meteorologické stanice.

Když kurzor umístíte na tečku, zobrazí se název stanice.

Pak kliknutím zobrazíte stav a předpověď počasí.

Chcete-li změnit mapu, kliknutím na zelené tlačítko se znaménkem +mapu přiblížíte, kliknutím na zelené tlačítko se znaménkem – mapu oddálíte a kliknutím na zelené šipky přejdete na sousední mapy.


METAR-TAF: